Buoy 13570

sailwx.info

Track history (hours):
 
Tides and Currents Weather Stations Pressure Air Temp Water Temp Dewpoint Dewpoint Depression Visibility Wind Speed Wind Dir Waves Ship Positions

Drifting buoy 13570

Last reported at 2015-Jan-28 14:00 UTC. Time now 2015-Jan-28 16:16 UTC.
Position N 34°39' W 028°23'.

Barometer 1038.0 mb
Water temperature 18.8 ° C

Date/timePositionNaut miles runAvg speedWind from/ knotsBaromVisibWave heightAir tempDewpointWater temp
2015-Jan-28 14:00N 34°39' W 028°23'1 0.3 1038.0 18.8
2015-Jan-28 12:00N 34°38' W 028°23'0 0.2 1038.9 18.8
2015-Jan-28 11:00N 34°38' W 028°23'1 0.5 1038.9 18.8
2015-Jan-28 09:00N 34°37' W 028°24'3 1.4 1038.4 18.8
2015-Jan-28 07:00N 34°34' W 028°23'0 0.2 1038.3 18.8
2015-Jan-28 05:00N 34°34' W 028°22'1 0.2 1038.4 18.8
2015-Jan-27 22:00N 34°33' W 028°23'3 3.1 1040.3 18.8
2015-Jan-27 21:00N 34°30' W 028°23'0 0.0 1039.8 18.8
2015-Jan-27 20:00N 34°30' W 028°23'0 0.1 1039.5 18.9
2015-Jan-27 19:00N 34°30' W 028°23'0 0.4 1038.6 18.9
2015-Jan-27 18:00N 34°30' W 028°23'0 0.3 1038.5 18.8
2015-Jan-27 17:00N 34°29' W 028°23'0 0.0 1038.7 18.9
2015-Jan-27 16:00N 34°29' W 028°23'2 2.3 1038.8 18.9
2015-Jan-27 15:00N 34°28' W 028°21'1 0.3 1039.4 18.8
2015-Jan-27 12:00N 34°27' W 028°21'3 3.1 1040.5 18.9
2015-Jan-27 11:00N 34°24' W 028°21'1 0.3 1040.1 18.9
2015-Jan-27 07:00N 34°23' W 028°21'1 0.6 1038.3 18.9
2015-Jan-27 05:00N 34°21' W 028°21'2 2.3 1038.1 18.9
2015-Jan-27 04:00N 34°19' W 028°20'0 0.0 1038.4 18.9
2015-Jan-27 00:00N 34°19' W 028°20'1 0.8 1037.7 19.0
2015-Jan-26 23:00N 34°19' W 028°20'1 0.7 1037.6 19.0
2015-Jan-26 22:00N 34°18' W 028°20'1 1.5 1037.2 19.0
2015-Jan-26 21:00N 34°16' W 028°19'0 0.0 1036.9 19.0
2015-Jan-26 20:00N 34°16' W 028°19'1 0.6 1036.1 19.0
2015-Jan-26 19:00N 34°16' W 028°19'2 1.6 1035.4 19.0
2015-Jan-26 18:00N 34°14' W 028°20'1 0.8 1034.8 19.0
2015-Jan-26 17:00N 34°14' W 028°19'2 1.1 1034.4 19.0
2015-Jan-26 15:00N 34°12' W 028°17'1 1.2 1034.3 19.0
2015-Jan-26 14:00N 34°11' W 028°16'1 1.1 1035.1 19.0
2015-Jan-26 13:00N 34°11' W 028°15'1 0.4 1035.5 19.0
2015-Jan-26 11:00N 34°10' W 028°15'2 1.9 1035.1 19.0
2015-Jan-26 10:00N 34°08' W 028°16'0 0.0 1034.5 18.9
2015-Jan-26 09:00N 34°08' W 028°16'1 0.3 1034.0 19.0
2015-Jan-26 07:00N 34°07' W 028°16'1 0.5 1032.8 19.0
2015-Jan-26 06:00N 34°07' W 028°16'4 1.3 1032.8 19.0
2015-Jan-26 03:00N 34°03' W 028°16'0 0.1 1032.7 19.0
2015-Jan-26 00:00N 34°03' W 028°16'1 0.5 1032.7 19.0
2015-Jan-25 22:00N 34°03' W 028°15'1 0.7 1032.0 19.1
2015-Jan-25 21:00N 34°02' W 028°14'0 0.0 1031.4 19.1
2015-Jan-25 20:00N 34°02' W 028°14'1 0.7 1030.7 19.1
2015-Jan-25 19:00N 34°01' W 028°14'0 0.0 1030.4 19.1
2015-Jan-25 18:00N 34°01' W 028°14'2 1.6 1030.0 19.1
2015-Jan-25 17:00N 33°60' W 028°13'1 0.7 1029.6 19.1
2015-Jan-25 15:00N 33°59' W 028°14'0 0.1 1029.7 19.1
2015-Jan-25 14:00N 33°59' W 028°14'2 0.9 1030.5 19.1
2015-Jan-25 12:00N 33°58' W 028°12'1 0.7 1031.0 19.1
2015-Jan-25 11:00N 33°57' W 028°12'1 1.4 1030.5 19.1
2015-Jan-25 10:00N 33°56' W 028°11'1 0.3 1030.1 19.0
2015-Jan-25 08:00N 33°55' W 028°11'1 0.6 1029.0 19.0
2015-Jan-25 07:00N 33°55' W 028°10'1 1.3 1028.5 19.0
2015-Jan-25 06:00N 33°54' W 028°09'0 0.0 1028.3 19.0
2015-Jan-25 05:00N 33°54' W 028°09'1 1.1 1028.6 19.1
2015-Jan-25 04:00N 33°53' W 028°10'0 0.0 1028.8 19.1
2015-Jan-25 03:00N 33°53' W 028°10'0 0.0 1029.0 19.0
2015-Jan-25 02:00N 33°53' W 028°10'3 1.0 1029.2 19.1
2015-Jan-24 23:00N 33°50' W 028°10'1 0.7 1029.7 19.0
2015-Jan-24 22:00N 33°50' W 028°11'2 0.9 1030.0 19.1
2015-Jan-24 20:00N 33°48' W 028°10'1 1.0 1029.3 19.1
2015-Jan-24 19:00N 33°48' W 028°09'1 0.8 1028.7 19.1
2015-Jan-24 18:00N 33°47' W 028°09'0 0.1 1028.6 19.1
2015-Jan-24 17:00N 33°47' W 028°09'1 0.9 1028.4 19.1
2015-Jan-24 16:00N 33°47' W 028°08'0 0.2 1028.4 19.1
2015-Jan-24 14:00N 33°46' W 028°08'0 0.5 1029.7 19.1
2015-Jan-24 13:00N 33°47' W 028°09'0 0.5 1030.8 19.1
2015-Jan-24 12:00N 33°46' W 028°09'3 1.3 1031.2 19.1
2015-Jan-24 10:00N 33°44' W 028°10'0 0.2 1030.8 19.1
2015-Jan-24 07:00N 33°43' W 028°10'1 0.5 1029.9 19.1
2015-Jan-24 06:00N 33°43' W 028°09'0 0.1 1030.1 19.1
2015-Jan-24 04:00N 33°43' W 028°10'1 0.6 1031.0 19.1
2015-Jan-24 02:00N 33°42' W 028°10'0 0.0 1031.8 19.1
2015-Jan-24 00:00N 33°42' W 028°10'1 0.6 1032.5 19.1
2015-Jan-23 23:00N 33°42' W 028°10'0 0.0 1032.8 19.1
2015-Jan-23 22:00N 33°42' W 028°10'1 0.5 1032.6 19.1
2015-Jan-23 21:00N 33°41' W 028°09'0 0.3 1032.8 19.1
2015-Jan-23 20:00N 33°41' W 028°09'1 0.6 1032.5 19.1
2015-Jan-23 19:00N 33°40' W 028°09'1 0.3 1032.4 19.1
2015-Jan-23 17:00N 33°41' W 028°08'0 0.0 1032.0 19.2
2015-Jan-23 16:00N 33°41' W 028°08'1 0.6 1032.0 19.2
2015-Jan-23 14:00N 33°40' W 028°10'0 0.5 1032.8 19.1
2015-Jan-23 13:00N 33°39' W 028°10'2 1.9 1033.7 19.1
2015-Jan-23 12:00N 33°38' W 028°08'1 0.5 1034.0 19.1
2015-Jan-23 10:00N 33°37' W 028°08'0 0.0 1033.2 19.1
2015-Jan-23 09:00N 33°37' W 028°08'0 0.3 1033.2 19.1
2015-Jan-23 08:00N 33°37' W 028°08'1 0.6 1033.1 19.1
2015-Jan-23 06:00N 33°37' W 028°06'0 0.0 1032.7 19.1
2015-Jan-23 05:00N 33°37' W 028°06'0 0.1 1032.9 19.1
2015-Jan-23 04:00N 33°37' W 028°06'1 0.7 1033.3 19.1
2015-Jan-23 03:00N 33°37' W 028°07'2 0.6 1033.6 19.1
2015-Jan-23 00:00N 33°35' W 028°07'1 0.7 1034.1 19.2
2015-Jan-22 22:00N 33°33' W 028°07'2 2.3 1034.3 19.2
2015-Jan-22 21:00N 33°32' W 028°05'1 0.3 1034.0 19.2
2015-Jan-22 19:00N 33°32' W 028°04'0 0.0 1033.2 19.2
2015-Jan-22 18:00N 33°32' W 028°04'1 0.5 1032.6 19.2
2015-Jan-22 17:00N 33°31' W 028°05'1 1.2 1032.7 19.2
2015-Jan-22 16:00N 33°30' W 028°06'1 0.3 1032.8 19.2
2015-Jan-22 12:00N 33°30' W 028°04'1 1.3 1035.1 19.2
2015-Jan-22 11:00N 33°29' W 028°05'1 0.5 1034.6 19.2
2015-Jan-22 08:00N 33°28' W 028°04'1 1.3 1033.6 19.2
2015-Jan-22 07:00N 33°27' W 028°03'1 0.7 1033.4 19.2
2015-Jan-22 06:00N 33°27' W 028°03'0 0.0 1033.2 19.2
2015-Jan-22 05:00N 33°27' W 028°03'1 0.5 1033.3 19.2
2015-Jan-22 02:00N 33°25' W 028°04'1 0.4 1033.4 19.2
2015-Jan-22 00:00N 33°25' W 028°04'1 1.3 1033.7 19.2
2015-Jan-21 23:00N 33°24' W 028°04'1 0.5 1033.5 19.2
2015-Jan-21 21:00N 33°23' W 028°04'1 0.5 1033.1 19.2
2015-Jan-21 18:00N 33°22' W 028°03'1 0.3 1031.7 19.2
2015-Jan-21 16:00N 33°22' W 028°04'1 0.8 1031.2 19.2
2015-Jan-21 15:00N 33°21' W 028°04'1 0.4 1031.4 19.2
2015-Jan-21 12:00N 33°20' W 028°04'0 0.1 1033.2 19.2
2015-Jan-21 11:00N 33°20' W 028°04'1 1.2 1032.8 19.2
2015-Jan-21 10:00N 33°19' W 028°05'1 0.3 1032.3 19.2
2015-Jan-21 06:00N 33°18' W 028°06'3 0.4 1030.4 19.2
2015-Jan-21 00:00N 33°15' W 028°07'1 0.6 1031.1 19.3
2015-Jan-20 22:00N 33°15' W 028°06'1 0.8 1031.1 19.3
2015-Jan-20 21:00N 33°14' W 028°07'1 0.9 1031.2 19.3
2015-Jan-20 20:00N 33°14' W 028°08'0 0.1 1031.0 19.3
2015-Jan-20 18:00N 33°14' W 028°08'1 0.6 1030.7 19.3
2015-Jan-20 17:00N 33°13' W 028°08'2 0.4 1030.5 19.3
2015-Jan-20 12:00N 33°11' W 028°09'2 1.0 1032.9 19.3
2015-Jan-20 10:00N 33°10' W 028°10'1 0.5 1032.2 19.3
2015-Jan-20 08:00N 33°09' W 028°11'0 0.0 1031.7 19.3
2015-Jan-20 07:00N 33°09' W 028°11'0 0.4 1031.4 19.3
2015-Jan-20 06:00N 33°09' W 028°11'2 1.8 1031.6 19.3
2015-Jan-20 05:00N 33°09' W 028°13'0 0.2 1031.9 19.3
2015-Jan-20 03:00N 33°09' W 028°12'3 0.8 1032.6 19.4
2015-Jan-19 23:00N 33°06' W 028°15'2 1.9 1033.4 19.4
2015-Jan-19 22:00N 33°06' W 028°17'0 0.0 1033.6 19.4
2015-Jan-19 21:00N 33°06' W 028°17'0 0.0 1033.4 19.4
2015-Jan-19 20:00N 33°06' W 028°17'0 0.0 1033.3 19.4
2015-Jan-19 19:00N 33°06' W 028°17'1 1.3 1033.5 19.4
2015-Jan-19 18:00N 33°05' W 028°17'0 0.4 1033.2 19.4
2015-Jan-19 17:00N 33°04' W 028°18'3 1.1 1032.9 19.4
2015-Jan-19 14:00N 33°03' W 028°22'1 0.4 1034.0 19.4
2015-Jan-19 12:00N 33°02' W 028°21'0 0.3 1035.2 19.4
2015-Jan-19 11:00N 33°02' W 028°22'1 0.7 1035.0 19.4
2015-Jan-19 09:00N 33°01' W 028°22'2 1.1 1034.4 19.4
2015-Jan-19 07:00N 32°60' W 028°25'1 0.4 1034.1 19.4
2015-Jan-19 03:00N 32°60' W 028°27'3 3.4 1034.7 19.4
2015-Jan-19 02:00N 32°57' W 028°29'0 0.0 1034.9 19.5
2015-Jan-19 00:00N 32°57' W 028°29'3 1.3 1035.5 19.5
2015-Jan-18 22:00N 32°56' W 028°32'1 0.7 1035.4 19.5
2015-Jan-18 21:00N 32°56' W 028°31'2 0.9 1035.2 19.5
2015-Jan-18 19:00N 32°55' W 028°32'1 0.8 1034.9 19.5
2015-Jan-18 18:00N 32°54' W 028°33'1 0.6 1034.6 19.5
2015-Jan-18 17:00N 32°54' W 028°34'1 0.7 1034.6 19.5
2015-Jan-18 16:00N 32°53' W 028°34'0 0.0 1034.4 19.4
2015-Jan-18 15:00N 32°53' W 028°34'   1034.7 19.4
Track history (hours):
 
Tides and Currents Weather Stations Pressure Air Temp Water Temp Dewpoint Dewpoint Depression Visibility Wind Speed Wind Dir Waves Ship Positions

Drifting buoy 13570

Last reported at 2015-Jan-28 14:00 UTC. Time now 2015-Jan-28 16:16 UTC.
Position N 34°39' W 028°23'.

Barometer 1038.0 mb
Water temperature 18.8 ° C

Date/timePositionNaut miles runAvg speedWind from/ knotsBaromVisibWave heightAir tempDewpointWater temp
2015-Jan-28 14:00N 34°39' W 028°23'1 0.3 1038.0 18.8
2015-Jan-28 12:00N 34°38' W 028°23'0 0.2 1038.9 18.8
2015-Jan-28 11:00N 34°38' W 028°23'1 0.5 1038.9 18.8
2015-Jan-28 09:00N 34°37' W 028°24'3 1.4 1038.4 18.8
2015-Jan-28 07:00N 34°34' W 028°23'0 0.2 1038.3 18.8
2015-Jan-28 05:00N 34°34' W 028°22'1 0.2 1038.4 18.8
2015-Jan-27 22:00N 34°33' W 028°23'3 3.1 1040.3 18.8
2015-Jan-27 21:00N 34°30' W 028°23'0 0.0 1039.8 18.8
2015-Jan-27 20:00N 34°30' W 028°23'0 0.1 1039.5 18.9
2015-Jan-27 19:00N 34°30' W 028°23'0 0.4 1038.6 18.9
2015-Jan-27 18:00N 34°30' W 028°23'0 0.3 1038.5 18.8
2015-Jan-27 17:00N 34°29' W 028°23'0 0.0 1038.7 18.9
2015-Jan-27 16:00N 34°29' W 028°23'2 2.3 1038.8 18.9
2015-Jan-27 15:00N 34°28' W 028°21'1 0.3 1039.4 18.8
2015-Jan-27 12:00N 34°27' W 028°21'3 3.1 1040.5 18.9
2015-Jan-27 11:00N 34°24' W 028°21'1 0.3 1040.1 18.9
2015-Jan-27 07:00N 34°23' W 028°21'1 0.6 1038.3 18.9
2015-Jan-27 05:00N 34°21' W 028°21'2 2.3 1038.1 18.9
2015-Jan-27 04:00N 34°19' W 028°20'0 0.0 1038.4 18.9
2015-Jan-27 00:00N 34°19' W 028°20'1 0.8 1037.7 19.0
2015-Jan-26 23:00N 34°19' W 028°20'1 0.7 1037.6 19.0
2015-Jan-26 22:00N 34°18' W 028°20'1 1.5 1037.2 19.0
2015-Jan-26 21:00N 34°16' W 028°19'0 0.0 1036.9 19.0
2015-Jan-26 20:00N 34°16' W 028°19'1 0.6 1036.1 19.0
2015-Jan-26 19:00N 34°16' W 028°19'2 1.6 1035.4 19.0
2015-Jan-26 18:00N 34°14' W 028°20'1 0.8 1034.8 19.0
2015-Jan-26 17:00N 34°14' W 028°19'2 1.1 1034.4 19.0
2015-Jan-26 15:00N 34°12' W 028°17'1 1.2 1034.3 19.0
2015-Jan-26 14:00N 34°11' W 028°16'1 1.1 1035.1 19.0
2015-Jan-26 13:00N 34°11' W 028°15'1 0.4 1035.5 19.0
2015-Jan-26 11:00N 34°10' W 028°15'2 1.9 1035.1 19.0
2015-Jan-26 10:00N 34°08' W 028°16'0 0.0 1034.5 18.9
2015-Jan-26 09:00N 34°08' W 028°16'1 0.3 1034.0 19.0
2015-Jan-26 07:00N 34°07' W 028°16'1 0.5 1032.8 19.0
2015-Jan-26 06:00N 34°07' W 028°16'4 1.3 1032.8 19.0
2015-Jan-26 03:00N 34°03' W 028°16'0 0.1 1032.7 19.0
2015-Jan-26 00:00N 34°03' W 028°16'1 0.5 1032.7 19.0
2015-Jan-25 22:00N 34°03' W 028°15'1 0.7 1032.0 19.1
2015-Jan-25 21:00N 34°02' W 028°14'0 0.0 1031.4 19.1
2015-Jan-25 20:00N 34°02' W 028°14'1 0.7 1030.7 19.1
2015-Jan-25 19:00N 34°01' W 028°14'0 0.0 1030.4 19.1
2015-Jan-25 18:00N 34°01' W 028°14'2 1.6 1030.0 19.1
2015-Jan-25 17:00N 33°60' W 028°13'1 0.7 1029.6 19.1
2015-Jan-25 15:00N 33°59' W 028°14'0 0.1 1029.7 19.1
2015-Jan-25 14:00N 33°59' W 028°14'2 0.9 1030.5 19.1
2015-Jan-25 12:00N 33°58' W 028°12'1 0.7 1031.0 19.1
2015-Jan-25 11:00N 33°57' W 028°12'1 1.4 1030.5 19.1
2015-Jan-25 10:00N 33°56' W 028°11'1 0.3 1030.1 19.0
2015-Jan-25 08:00N 33°55' W 028°11'1 0.6 1029.0 19.0
2015-Jan-25 07:00N 33°55' W 028°10'1 1.3 1028.5 19.0
2015-Jan-25 06:00N 33°54' W 028°09'0 0.0 1028.3 19.0
2015-Jan-25 05:00N 33°54' W 028°09'1 1.1 1028.6 19.1
2015-Jan-25 04:00N 33°53' W 028°10'0 0.0 1028.8 19.1
2015-Jan-25 03:00N 33°53' W 028°10'0 0.0 1029.0 19.0
2015-Jan-25 02:00N 33°53' W 028°10'3 1.0 1029.2 19.1
2015-Jan-24 23:00N 33°50' W 028°10'1 0.7 1029.7 19.0
2015-Jan-24 22:00N 33°50' W 028°11'2 0.9 1030.0 19.1
2015-Jan-24 20:00N 33°48' W 028°10'1 1.0 1029.3 19.1
2015-Jan-24 19:00N 33°48' W 028°09'1 0.8 1028.7 19.1
2015-Jan-24 18:00N 33°47' W 028°09'0 0.1 1028.6 19.1
2015-Jan-24 17:00N 33°47' W 028°09'1 0.9 1028.4 19.1
2015-Jan-24 16:00N 33°47' W 028°08'0 0.2 1028.4 19.1
2015-Jan-24 14:00N 33°46' W 028°08'0 0.5 1029.7 19.1
2015-Jan-24 13:00N 33°47' W 028°09'0 0.5 1030.8 19.1
2015-Jan-24 12:00N 33°46' W 028°09'3 1.3 1031.2 19.1
2015-Jan-24 10:00N 33°44' W 028°10'0 0.2 1030.8 19.1
2015-Jan-24 07:00N 33°43' W 028°10'1 0.5 1029.9 19.1
2015-Jan-24 06:00N 33°43' W 028°09'0 0.1 1030.1 19.1
2015-Jan-24 04:00N 33°43' W 028°10'1 0.6 1031.0 19.1
2015-Jan-24 02:00N 33°42' W 028°10'0 0.0 1031.8 19.1
2015-Jan-24 00:00N 33°42' W 028°10'1 0.6 1032.5 19.1
2015-Jan-23 23:00N 33°42' W 028°10'0 0.0 1032.8 19.1
2015-Jan-23 22:00N 33°42' W 028°10'1 0.5 1032.6 19.1
2015-Jan-23 21:00N 33°41' W 028°09'0 0.3 1032.8 19.1
2015-Jan-23 20:00N 33°41' W 028°09'1 0.6 1032.5 19.1
2015-Jan-23 19:00N 33°40' W 028°09'1 0.3 1032.4 19.1
2015-Jan-23 17:00N 33°41' W 028°08'0 0.0 1032.0 19.2
2015-Jan-23 16:00N 33°41' W 028°08'1 0.6 1032.0 19.2
2015-Jan-23 14:00N 33°40' W 028°10'0 0.5 1032.8 19.1
2015-Jan-23 13:00N 33°39' W 028°10'2 1.9 1033.7 19.1
2015-Jan-23 12:00N 33°38' W 028°08'1 0.5 1034.0 19.1
2015-Jan-23 10:00N 33°37' W 028°08'0 0.0 1033.2 19.1
2015-Jan-23 09:00N 33°37' W 028°08'0 0.3 1033.2 19.1
2015-Jan-23 08:00N 33°37' W 028°08'1 0.6 1033.1 19.1
2015-Jan-23 06:00N 33°37' W 028°06'0 0.0 1032.7 19.1
2015-Jan-23 05:00N 33°37' W 028°06'0 0.1 1032.9 19.1
2015-Jan-23 04:00N 33°37' W 028°06'1 0.7 1033.3 19.1
2015-Jan-23 03:00N 33°37' W 028°07'2 0.6 1033.6 19.1
2015-Jan-23 00:00N 33°35' W 028°07'1 0.7 1034.1 19.2
2015-Jan-22 22:00N 33°33' W 028°07'2 2.3 1034.3 19.2
2015-Jan-22 21:00N 33°32' W 028°05'1 0.3 1034.0 19.2
2015-Jan-22 19:00N 33°32' W 028°04'0 0.0 1033.2 19.2
2015-Jan-22 18:00N 33°32' W 028°04'1 0.5 1032.6 19.2
2015-Jan-22 17:00N 33°31' W 028°05'1 1.2 1032.7 19.2
2015-Jan-22 16:00N 33°30' W 028°06'1 0.3 1032.8 19.2
2015-Jan-22 12:00N 33°30' W 028°04'1 1.3 1035.1 19.2
2015-Jan-22 11:00N 33°29' W 028°05'1 0.5 1034.6 19.2
2015-Jan-22 08:00N 33°28' W 028°04'1 1.3 1033.6 19.2
2015-Jan-22 07:00N 33°27' W 028°03'1 0.7 1033.4 19.2
2015-Jan-22 06:00N 33°27' W 028°03'0 0.0 1033.2 19.2
2015-Jan-22 05:00N 33°27' W 028°03'1 0.5 1033.3 19.2
2015-Jan-22 02:00N 33°25' W 028°04'1 0.4 1033.4 19.2
2015-Jan-22 00:00N 33°25' W 028°04'1 1.3 1033.7 19.2
2015-Jan-21 23:00N 33°24' W 028°04'1 0.5 1033.5 19.2
2015-Jan-21 21:00N 33°23' W 028°04'1 0.5 1033.1 19.2
2015-Jan-21 18:00N 33°22' W 028°03'1 0.3 1031.7 19.2
2015-Jan-21 16:00N 33°22' W 028°04'1 0.8 1031.2 19.2
2015-Jan-21 15:00N 33°21' W 028°04'1 0.4 1031.4 19.2
2015-Jan-21 12:00N 33°20' W 028°04'0 0.1 1033.2 19.2
2015-Jan-21 11:00N 33°20' W 028°04'1 1.2 1032.8 19.2
2015-Jan-21 10:00N 33°19' W 028°05'1 0.3 1032.3 19.2
2015-Jan-21 06:00N 33°18' W 028°06'3 0.4 1030.4 19.2
2015-Jan-21 00:00N 33°15' W 028°07'1 0.6 1031.1 19.3
2015-Jan-20 22:00N 33°15' W 028°06'1 0.8 1031.1 19.3
2015-Jan-20 21:00N 33°14' W 028°07'1 0.9 1031.2 19.3
2015-Jan-20 20:00N 33°14' W 028°08'0 0.1 1031.0 19.3
2015-Jan-20 18:00N 33°14' W 028°08'1 0.6 1030.7 19.3
2015-Jan-20 17:00N 33°13' W 028°08'2 0.4 1030.5 19.3
2015-Jan-20 12:00N 33°11' W 028°09'2 1.0 1032.9 19.3
2015-Jan-20 10:00N 33°10' W 028°10'1 0.5 1032.2 19.3
2015-Jan-20 08:00N 33°09' W 028°11'0 0.0 1031.7 19.3
2015-Jan-20 07:00N 33°09' W 028°11'0 0.4 1031.4 19.3
2015-Jan-20 06:00N 33°09' W 028°11'2 1.8 1031.6 19.3
2015-Jan-20 05:00N 33°09' W 028°13'0 0.2 1031.9 19.3
2015-Jan-20 03:00N 33°09' W 028°12'3 0.8 1032.6 19.4
2015-Jan-19 23:00N 33°06' W 028°15'2 1.9 1033.4 19.4
2015-Jan-19 22:00N 33°06' W 028°17'0 0.0 1033.6 19.4
2015-Jan-19 21:00N 33°06' W 028°17'0 0.0 1033.4 19.4
2015-Jan-19 20:00N 33°06' W 028°17'0 0.0 1033.3 19.4
2015-Jan-19 19:00N 33°06' W 028°17'1 1.3 1033.5 19.4
2015-Jan-19 18:00N 33°05' W 028°17'0 0.4 1033.2 19.4
2015-Jan-19 17:00N 33°04' W 028°18'3 1.1 1032.9 19.4
2015-Jan-19 14:00N 33°03' W 028°22'1 0.4 1034.0 19.4
2015-Jan-19 12:00N 33°02' W 028°21'0 0.3 1035.2 19.4
2015-Jan-19 11:00N 33°02' W 028°22'1 0.7 1035.0 19.4
2015-Jan-19 09:00N 33°01' W 028°22'2 1.1 1034.4 19.4
2015-Jan-19 07:00N 32°60' W 028°25'1 0.4 1034.1 19.4
2015-Jan-19 03:00N 32°60' W 028°27'3 3.4 1034.7 19.4
2015-Jan-19 02:00N 32°57' W 028°29'0 0.0 1034.9 19.5
2015-Jan-19 00:00N 32°57' W 028°29'3 1.3 1035.5 19.5
2015-Jan-18 22:00N 32°56' W 028°32'1 0.7 1035.4 19.5
2015-Jan-18 21:00N 32°56' W 028°31'2 0.9 1035.2 19.5
2015-Jan-18 19:00N 32°55' W 028°32'1 0.8 1034.9 19.5
2015-Jan-18 18:00N 32°54' W 028°33'1 0.6 1034.6 19.5
2015-Jan-18 17:00N 32°54' W 028°34'1 0.7 1034.6 19.5
2015-Jan-18 16:00N 32°53' W 028°34'0 0.0 1034.4 19.4
2015-Jan-18 15:00N 32°53' W 028°34'   1034.7 19.4

Dump ship's entire track history